Time;durP1;ratioP1;P1;durP2;ratioP2;P2;SDS_P1;SDS_P2;PMS_P1;PMS_P2;Temp;Humidity;BMP_temperature;BMP_pressure;BME280_temperature;BME280_humidity;BME280_pressure;Samples;Min_cycle;Max_cycle;Signal;HPM_P1;HPM_P2
2023/07/21 00:01:16;;;;;;;2.28;1.20;;;20.50;80.40;;;;;;4146777;28;20465;-51
2023/07/21 00:03:18;;;;;;;3.03;1.45;;;20.60;79.60;;;;;;4131761;28;20042;-52
2023/07/21 00:05:24;;;;;;;2.78;1.48;;;20.60;79.30;;;;;;4130858;28;20056;-52
2023/07/21 00:07:26;;;;;;;6.20;0.85;;;20.60;79.80;;;;;;4133422;28;20074;-52
2023/07/21 00:09:28;;;;;;;6.72;1.25;;;20.60;79.50;;;;;;4133515;28;20069;-49
2023/07/21 00:11:30;;;;;;;3.83;1.50;;;20.50;79.70;;;;;;4116136;28;20047;-50
2023/07/21 00:13:36;;;;;;;6.05;1.10;;;20.60;79.80;;;;;;4132229;28;20414;-50
2023/07/21 00:15:39;;;;;;;2.00;0.98;;;20.50;80.20;;;;;;4133531;28;20042;-49
2023/07/21 00:17:42;;;;;;;4.15;1.02;;;20.50;80.30;;;;;;4133533;28;20126;-48
2023/07/21 00:19:44;;;;;;;1.90;1.25;;;20.40;80.40;;;;;;4133330;28;20050;-48
2023/07/21 00:21:47;;;;;;;2.67;1.00;;;20.40;80.60;;;;;;4115812;28;20050;-50
2023/07/21 00:23:49;;;;;;;3.83;1.25;;;20.50;79.80;;;;;;4132130;28;20088;-49
2023/07/21 00:25:51;;;;;;;4.05;1.25;;;20.50;79.80;;;;;;4133559;28;20093;-50
2023/07/21 00:27:54;;;;;;;13.07;1.52;;;20.40;79.80;;;;;;4133071;28;20054;-51
2023/07/21 00:29:57;;;;;;;2.08;1.08;;;20.40;80.00;;;;;;4133266;28;20042;-51
2023/07/21 00:32:01;;;;;;;3.97;1.30;;;20.40;79.60;;;;;;4133179;28;20494;-51
2023/07/21 00:34:04;;;;;;;4.57;1.35;;;20.40;79.60;;;;;;4132280;28;20101;-50
2023/07/21 00:36:06;;;;;;;2.28;1.20;;;20.40;79.40;;;;;;4133310;28;20049;-51
2023/07/21 00:38:08;;;;;;;3.17;1.30;;;20.40;79.30;;;;;;4133125;28;20073;-51
2023/07/21 00:40:18;;;;;;;2.72;1.00;;;20.40;79.30;;;;;;4133062;28;20047;-52
2023/07/21 00:42:21;;;;;;;2.33;1.30;;;20.40;79.50;;;;;;4143529;28;20054;-54
2023/07/21 00:44:23;;;;;;;1.45;1.08;;;20.30;79.70;;;;;;4148993;28;20460;-50
2023/07/21 00:46:25;;;;;;;5.78;1.40;;;20.40;79.70;;;;;;4149316;28;20046;-52
2023/07/21 00:48:29;;;;;;;2.88;1.20;;;20.30;80.60;;;;;;4149314;28;20121;-50
2023/07/21 00:50:31;;;;;;;7.25;1.25;;;20.20;80.50;;;;;;4149229;28;20050;-50
2023/07/21 00:52:34;;;;;;;4.97;1.13;;;20.20;80.60;;;;;;4148039;28;20054;-50
2023/07/21 00:54:36;;;;;;;4.22;1.27;;;20.20;80.20;;;;;;4148873;28;20060;-50
2023/07/21 00:56:38;;;;;;;4.72;1.45;;;20.20;80.00;;;;;;4148838;28;20080;-50
2023/07/21 00:58:40;;;;;;;6.05;1.38;;;20.30;80.40;;;;;;4148900;28;20050;-50
2023/07/21 01:00:42;;;;;;;2.70;1.10;;;20.30;80.40;;;;;;4148995;28;20048;-50
2023/07/21 01:02:49;;;;;;;2.67;1.00;;;20.30;80.00;;;;;;4137391;28;20082;-50
2023/07/21 01:04:54;;;;;;;5.32;1.10;;;20.30;80.20;;;;;;4132703;28;20054;-52
2023/07/21 01:06:57;;;;;;;3.17;1.00;;;20.30;79.80;;;;;;4132826;28;20054;-52
2023/07/21 01:09:02;;;;;;;2.85;1.20;;;20.20;80.20;;;;;;4132610;28;20061;-52
2023/07/21 01:11:04;;;;;;;2.42;1.20;;;20.30;80.00;;;;;;4132512;28;20459;-52
2023/07/21 01:13:08;;;;;;;5.88;1.10;;;20.20;79.90;;;;;;4131700;28;20074;-50
2023/07/21 01:15:10;;;;;;;4.25;1.38;;;20.10;79.80;;;;;;4115457;28;20483;-52
2023/07/21 01:17:14;;;;;;;3.42;1.10;;;20.10;80.00;;;;;;4131463;28;20060;-51
2023/07/21 01:19:17;;;;;;;6.88;1.52;;;19.90;81.50;;;;;;4132612;28;20070;-52
2023/07/21 01:21:30;;;;;;;3.72;1.42;;;19.80;81.70;;;;;;4132470;28;20057;-52
2023/07/21 01:23:41;;;;;;;7.53;1.50;;;19.80;82.20;;;;;;4131154;28;20121;-52
2023/07/21 01:25:46;;;;;;;6.30;1.50;;;19.80;82.60;;;;;;4132181;28;20161;-50
2023/07/21 01:27:50;;;;;;;6.38;1.60;;;19.80;83.20;;;;;;4131599;28;20161;-50
2023/07/21 01:29:56;;;;;;;5.63;1.90;;;19.80;84.40;;;;;;4132424;28;20422;-50
2023/07/21 01:31:59;;;;;;;2.28;1.30;;;19.70;83.60;;;;;;4132582;28;20141;-49
2023/07/21 01:34:03;;;;;;;2.85;1.20;;;19.70;84.90;;;;;;4131082;28;20038;-50
2023/07/21 01:36:06;;;;;;;5.95;1.63;;;19.70;85.60;;;;;;4132219;28;20105;-52
2023/07/21 01:38:10;;;;;;;4.07;1.13;;;19.70;86.10;;;;;;4132122;28;20133;-50
2023/07/21 01:40:15;;;;;;;3.63;1.30;;;19.70;86.60;;;;;;4131979;28;20053;-51
2023/07/21 01:42:19;;;;;;;3.35;1.27;;;19.50;86.40;;;;;;4143377;28;20478;-52
2023/07/21 01:44:22;;;;;;;2.88;1.35;;;19.30;87.00;;;;;;4147298;28;20405;-47
2023/07/21 01:46:26;;;;;;;2.60;1.40;;;19.40;89.20;;;;;;4148220;28;20061;-50
2023/07/21 01:48:28;;;;;;;5.25;1.40;;;19.30;90.20;;;;;;4148431;28;20405;-50
2023/07/21 01:50:31;;;;;;;4.18;1.30;;;19.30;90.30;;;;;;4148276;28;20076;-50
2023/07/21 01:52:35;;;;;;;6.68;1.40;;;19.20;90.00;;;;;;4147694;28;20138;-51
2023/07/21 01:54:50;;;;;;;2.30;1.30;;;19.20;90.50;;;;;;4147587;28;20052;-51
2023/07/21 01:56:57;;;;;;;9.38;1.38;;;19.20;90.60;;;;;;4148406;28;20531;-48
2023/07/21 01:59:05;;;;;;;6.18;1.88;;;19.10;90.50;;;;;;4148022;28;20050;-51
2023/07/21 02:01:09;;;;;;;3.92;1.40;;;19.00;90.70;;;;;;4146950;28;20136;-52
2023/07/21 02:03:12;;;;;;;1.85;1.30;;;18.90;90.50;;;;;;4134007;28;20046;-49
2023/07/21 02:05:18;;;;;;;1.63;1.10;;;18.90;91.10;;;;;;4131764;28;20092;-52
2023/07/21 02:07:20;;;;;;;2.35;1.50;;;18.90;91.00;;;;;;4132015;28;20050;-50
2023/07/21 02:09:23;;;;;;;2.85;1.30;;;19.00;90.90;;;;;;4131349;28;20042;-50
2023/07/21 02:11:25;;;;;;;3.72;1.40;;;19.00;91.00;;;;;;4131909;28;20429;-51
2023/07/21 02:13:27;;;;;;;4.85;1.75;;;19.00;91.10;;;;;;4130075;28;20066;-51
2023/07/21 02:15:30;;;;;;;2.25;1.40;;;18.90;91.50;;;;;;4131823;28;20047;-52
2023/07/21 02:17:33;;;;;;;2.70;1.40;;;18.80;91.30;;;;;;4131927;28;20430;-50
2023/07/21 02:19:35;;;;;;;4.03;1.48;;;18.80;91.70;;;;;;4131757;28;20050;-50
2023/07/21 02:21:37;;;;;;;3.58;1.08;;;18.70;91.30;;;;;;4114451;28;20113;-49
2023/07/21 02:23:39;;;;;;;1.85;1.13;;;18.70;91.00;;;;;;4130265;28;20484;-49
2023/07/21 02:25:43;;;;;;;2.80;1.40;;;18.70;90.90;;;;;;4131712;28;20053;-50
2023/07/21 02:27:45;;;;;;;1.70;0.95;;;18.80;91.60;;;;;;4131672;28;20058;-51
2023/07/21 02:29:50;;;;;;;1.63;1.02;;;18.60;90.30;;;;;;4131164;28;20049;-51
2023/07/21 02:31:54;;;;;;;1.63;1.10;;;18.60;90.20;;;;;;4131628;28;20073;-51
2023/07/21 02:33:56;;;;;;;4.63;1.38;;;18.50;90.60;;;;;;4113091;28;20077;-49
2023/07/21 02:35:59;;;;;;;7.30;1.70;;;18.60;90.40;;;;;;4131239;28;20057;-50
2023/07/21 02:38:03;;;;;;;2.80;1.13;;;18.60;90.20;;;;;;4130930;28;20048;-49
2023/07/21 02:40:07;;;;;;;4.70;1.38;;;18.60;90.50;;;;;;4131610;28;20046;-51
2023/07/21 02:42:09;;;;;;;1.85;1.00;;;18.60;90.40;;;;;;4141344;28;20084;-50
2023/07/21 02:44:11;;;;;;;2.70;1.23;;;18.50;90.40;;;;;;4146520;28;20045;-49
2023/07/21 02:46:14;;;;;;;3.33;1.10;;;18.50;90.60;;;;;;4147620;28;20049;-49
2023/07/21 02:48:19;;;;;;;2.65;1.05;;;18.50;90.80;;;;;;4147667;28;20100;-49
2023/07/21 02:50:23;;;;;;;2.20;1.20;;;18.40;91.00;;;;;;4146157;28;20042;-49
2023/07/21 02:52:27;;;;;;;1.25;1.15;;;18.20;91.00;;;;;;4147149;28;20076;-49
2023/07/21 02:54:30;;;;;;;1.30;1.20;;;18.20;91.10;;;;;;4145479;28;20042;-49
2023/07/21 02:56:34;;;;;;;4.57;1.90;;;18.20;91.30;;;;;;4147609;28;20083;-49
2023/07/21 02:58:36;;;;;;;2.50;1.50;;;18.20;91.50;;;;;;4147174;28;20128;-49
2023/07/21 03:00:39;;;;;;;4.03;1.73;;;18.10;91.50;;;;;;4147492;28;20050;-48
2023/07/21 03:02:42;;;;;;;1.20;1.00;;;18.10;91.90;;;;;;4138260;28;20486;-49
2023/07/21 03:04:48;;;;;;;2.58;1.35;;;18.10;91.50;;;;;;4130142;28;20050;-50
2023/07/21 03:06:50;;;;;;;2.03;1.40;;;18.20;91.60;;;;;;4130753;28;20050;-48
2023/07/21 03:08:53;;;;;;;5.68;1.80;;;18.20;91.50;;;;;;4131277;28;20042;-49
2023/07/21 03:10:56;;;;;;;1.98;1.30;;;18.20;91.40;;;;;;4130919;28;20517;-50
2023/07/21 03:12:58;;;;;;;3.22;1.48;;;18.30;91.80;;;;;;4130122;28;20046;-53
2023/07/21 03:15:00;;;;;;;3.25;1.40;;;18.20;91.80;;;;;;4130906;28;20117;-49
2023/07/21 03:17:02;;;;;;;3.83;1.65;;;18.20;92.10;;;;;;4131188;28;20047;-49
2023/07/21 03:19:04;;;;;;;4.88;1.52;;;18.10;92.10;;;;;;4131059;28;20548;-48
2023/07/21 03:21:08;;;;;;;3.42;1.65;;;18.20;92.10;;;;;;4130810;28;20077;-48
2023/07/21 03:23:11;;;;;;;2.70;1.60;;;18.10;92.00;;;;;;4130323;28;20129;-51
2023/07/21 03:25:14;;;;;;;3.65;1.73;;;18.10;92.20;;;;;;4130716;28;20068;-53
2023/07/21 03:27:16;;;;;;;5.10;1.48;;;18.10;92.40;;;;;;4131076;28;20050;-50
2023/07/21 03:29:18;;;;;;;3.92;1.65;;;18.00;92.50;;;;;;4131113;28;20134;-51
2023/07/21 03:31:20;;;;;;;6.88;2.00;;;18.10;92.60;;;;;;4130918;28;20162;-51
2023/07/21 03:33:22;;;;;;;5.50;1.35;;;18.00;93.20;;;;;;4129957;28;20120;-50
2023/07/21 03:35:25;;;;;;;3.28;1.52;;;17.90;92.60;;;;;;4130549;28;20081;-51
2023/07/21 03:37:30;;;;;;;2.33;1.50;;;18.00;92.70;;;;;;4130968;28;20402;-49
2023/07/21 03:39:33;;;;;;;3.53;1.35;;;17.90;92.80;;;;;;4131086;28;20094;-49
2023/07/21 03:41:35;;;;;;;3.35;1.35;;;18.00;93.30;;;;;;4138023;28;20042;-49
2023/07/21 03:43:37;;;;;;;2.00;1.40;;;17.90;92.60;;;;;;4148988;28;20049;-52
2023/07/21 03:45:39;;;;;;;3.72;1.65;;;17.90;92.80;;;;;;4149902;28;20057;-52
2023/07/21 03:47:41;;;;;;;2.90;1.63;;;18.00;92.50;;;;;;4150201;28;20053;-51
2023/07/21 03:49:43;;;;;;;4.97;1.42;;;17.90;92.70;;;;;;4149771;28;20070;-52
2023/07/21 03:51:46;;;;;;;2.03;1.40;;;17.90;92.80;;;;;;4150095;28;20096;-52
2023/07/21 03:53:49;;;;;;;2.55;1.48;;;17.80;92.50;;;;;;4149265;28;20099;-51
2023/07/21 03:55:51;;;;;;;5.22;1.58;;;17.70;92.40;;;;;;4150216;28;20050;-51
2023/07/21 03:57:53;;;;;;;5.90;1.83;;;17.80;92.60;;;;;;4150245;28;20050;-52
2023/07/21 03:59:55;;;;;;;5.35;1.63;;;17.70;93.00;;;;;;4149828;28;20250;-52
2023/07/21 04:01:57;;;;;;;3.90;1.67;;;17.60;92.90;;;;;;4147082;28;20042;-49
2023/07/21 04:03:59;;;;;;;4.25;1.77;;;17.70;93.00;;;;;;4132287;28;20078;-52
2023/07/21 04:06:07;;;;;;;3.78;1.75;;;17.60;93.20;;;;;;4116220;28;20046;-51
2023/07/21 04:08:10;;;;;;;3.22;1.30;;;17.60;93.20;;;;;;4133619;28;20458;-49
2023/07/21 04:10:14;;;;;;;9.18;1.90;;;17.70;92.90;;;;;;4133615;28;20077;-50
2023/07/21 04:12:16;;;;;;;4.10;1.80;;;17.70;92.80;;;;;;4116262;28;20085;-50
2023/07/21 04:14:18;;;;;;;4.65;1.52;;;17.70;92.70;;;;;;4132422;28;20120;-50
2023/07/21 04:16:21;;;;;;;2.22;1.52;;;17.70;92.90;;;;;;4133413;28;20101;-50
2023/07/21 04:18:24;;;;;;;3.08;1.35;;;17.80;92.80;;;;;;4133042;28;20052;-50
2023/07/21 04:20:28;;;;;;;2.13;1.60;;;17.80;92.50;;;;;;4133458;28;20046;-50
2023/07/21 04:22:30;;;;;;;2.70;1.58;;;17.70;92.60;;;;;;4133620;28;20506;-50
2023/07/21 04:24:33;;;;;;;7.35;1.92;;;17.70;92.60;;;;;;4132106;28;20046;-49
2023/07/21 04:26:37;;;;;;;5.30;1.90;;;17.70;92.50;;;;;;4133256;28;20121;-49
2023/07/21 04:28:40;;;;;;;5.70;2.10;;;17.70;92.80;;;;;;4133556;28;20457;-49
2023/07/21 04:30:41;;;;;;;3.17;1.50;;;17.70;92.90;;;;;;4133404;28;20051;-50
2023/07/21 04:32:44;;;;;;;2.97;2.00;;;17.70;93.00;;;;;;4133202;28;20042;-50
2023/07/21 04:34:46;;;;;;;5.65;1.92;;;17.80;92.70;;;;;;4114788;28;20081;-52
2023/07/21 04:36:48;;;;;;;3.88;1.88;;;17.80;92.90;;;;;;4133325;28;20120;-52
2023/07/21 04:38:50;;;;;;;4.15;1.80;;;17.80;92.90;;;;;;4133255;28;20066;-52
2023/07/21 04:40:52;;;;;;;10.50;2.28;;;17.80;93.10;;;;;;4133293;28;20046;-52
2023/07/21 04:42:56;;;;;;;5.65;2.00;;;17.80;93.50;;;;;;4116947;28;20047;-50
2023/07/21 04:44:58;;;;;;;4.15;2.20;;;17.80;93.90;;;;;;4116202;28;20549;-49
2023/07/21 04:47:00;;;;;;;2.58;2.10;;;17.80;94.10;;;;;;4117115;28;20418;-50
2023/07/21 04:49:07;;;;;;;6.13;2.22;;;17.80;94.70;;;;;;4116959;28;20471;-50
2023/07/21 04:51:09;;;;;;;5.68;2.17;;;17.70;94.70;;;;;;4116117;28;20058;-48
2023/07/21 04:53:11;;;;;;;6.65;2.42;;;17.80;94.30;;;;;;4114878;28;20201;-49
2023/07/21 04:55:14;;;;;;;4.70;2.08;;;17.80;94.80;;;;;;4116684;28;20047;-49
2023/07/21 04:57:17;;;;;;;6.15;2.13;;;17.80;94.50;;;;;;4116832;28;20074;-49
2023/07/21 04:59:21;;;;;;;5.45;2.00;;;17.80;93.80;;;;;;4115526;28;20050;-49
2023/07/21 05:01:23;;;;;;;3.38;1.98;;;17.80;94.40;;;;;;4115546;28;20057;-51
2023/07/21 05:03:25;;;;;;;4.47;1.85;;;17.80;94.60;;;;;;4114096;28;20101;-50
2023/07/21 05:05:27;;;;;;;4.68;2.63;;;17.70;94.30;;;;;;4116298;28;20039;-51
2023/07/21 05:07:30;;;;;;;7.72;2.95;;;17.70;94.60;;;;;;4116765;28;20089;-51
2023/07/21 05:09:32;;;;;;;2.92;2.10;;;17.80;94.60;;;;;;4116691;28;20502;-51
2023/07/21 05:11:34;;;;;;;8.95;2.45;;;17.80;94.20;;;;;;4116668;28;20051;-51
2023/07/21 05:13:37;;;;;;;3.72;2.25;;;17.70;94.60;;;;;;4115483;28;20061;-51
2023/07/21 05:15:42;;;;;;;8.93;2.70;;;17.70;94.50;;;;;;4116494;28;20462;-51
2023/07/21 05:17:44;;;;;;;;;;;17.80;94.30;;;;;;4116509;28;20050;-51
2023/07/21 05:19:46;;;;;;;5.70;2.10;;;17.70;93.50;;;;;;4116431;28;20125;-51
2023/07/21 05:21:48;;;;;;;4.60;1.73;;;17.70;93.60;;;;;;4116313;28;20046;-50
2023/07/21 05:23:50;;;;;;;4.18;1.40;;;17.80;93.70;;;;;;4115508;28;20299;-52
2023/07/21 05:26:00;;;;;;;2.53;1.40;;;17.80;92.80;;;;;;4114881;28;20102;-51
2023/07/21 05:28:02;;;;;;;3.55;1.20;;;17.80;92.60;;;;;;4116367;28;20057;-51
2023/07/21 05:30:05;;;;;;;2.42;1.25;;;17.70;91.80;;;;;;4116513;28;20134;-51
2023/07/21 05:32:09;;;;;;;3.85;1.70;;;17.80;92.80;;;;;;4115825;28;20056;-48
2023/07/21 05:34:11;;;;;;;2.90;1.48;;;17.80;92.80;;;;;;4115137;28;20046;-49
2023/07/21 05:36:13;;;;;;;5.13;1.83;;;17.80;92.50;;;;;;4116344;28;20042;-49
2023/07/21 05:38:15;;;;;;;2.35;1.40;;;17.80;92.30;;;;;;4116159;28;20470;-50
2023/07/21 05:40:17;;;;;;;7.40;3.00;;;17.90;92.60;;;;;;4116094;28;20047;-50
2023/07/21 05:42:20;;;;;;;4.50;2.50;;;17.80;92.80;;;;;;4115824;28;20074;-49
2023/07/21 05:44:22;;;;;;;5.28;2.05;;;17.90;92.50;;;;;;4115172;28;20470;-50
2023/07/21 05:46:24;;;;;;;3.90;1.58;;;17.90;92.50;;;;;;4130480;28;20054;-49
2023/07/21 05:48:28;;;;;;;1.80;1.25;;;17.90;92.10;;;;;;4116016;28;20054;-49
2023/07/21 05:50:35;;;;;;;2.50;1.52;;;17.90;91.90;;;;;;4115922;28;20047;-49
2023/07/21 05:52:37;;;;;;;3.45;1.77;;;17.90;91.90;;;;;;4116160;28;20051;-51
2023/07/21 05:54:41;;;;;;;5.90;1.50;;;18.00;92.20;;;;;;4114899;28;20058;-51
2023/07/21 05:56:43;;;;;;;1.92;1.25;;;18.00;91.70;;;;;;4130525;28;20497;-51
2023/07/21 05:58:45;;;;;;;3.70;1.88;;;18.00;91.80;;;;;;4122986;28;20053;-52
2023/07/21 06:00:47;;;;;;;5.15;1.85;;;18.00;91.70;;;;;;4147620;28;20060;-52
2023/07/21 06:02:49;;;;;;;5.20;1.80;;;18.00;91.60;;;;;;4137706;28;20046;-52
2023/07/21 06:04:56;;;;;;;2.97;1.50;;;18.00;91.10;;;;;;4130245;28;20418;-51
2023/07/21 06:06:58;;;;;;;5.00;1.80;;;18.00;91.00;;;;;;4131702;28;20101;-51
2023/07/21 06:09:00;;;;;;;7.68;1.95;;;18.10;90.90;;;;;;4131765;28;20054;-51
2023/07/21 06:11:02;;;;;;;8.80;1.88;;;18.10;90.90;;;;;;4132032;28;20081;-52
2023/07/21 06:13:06;;;;;;;4.78;1.67;;;18.10;91.10;;;;;;4131762;28;20057;-52
2023/07/21 06:15:08;;;;;;;5.30;2.10;;;18.20;90.90;;;;;;4130150;28;20138;-52
2023/07/21 06:17:10;;;;;;;4.20;1.70;;;18.20;91.10;;;;;;4131587;28;20445;-50
2023/07/21 06:19:12;;;;;;;5.20;1.95;;;18.30;90.90;;;;;;4131837;28;20050;-52
2023/07/21 06:21:16;;;;;;;5.22;1.40;;;18.30;90.80;;;;;;4131770;28;20129;-49
2023/07/21 06:23:19;;;;;;;2.08;1.60;;;18.30;90.80;;;;;;4131429;28;20053;-49
2023/07/21 06:25:21;;;;;;;2.90;1.80;;;18.30;90.30;;;;;;4130582;28;20121;-49
2023/07/21 06:27:23;;;;;;;2.65;1.50;;;18.40;90.10;;;;;;4131539;28;20068;-49
2023/07/21 06:29:25;;;;;;;3.83;1.77;;;18.50;90.30;;;;;;4131248;28;20133;-48
2023/07/21 06:31:27;;;;;;;5.35;2.20;;;18.50;89.50;;;;;;4131361;28;20049;-53
2023/07/21 06:33:30;;;;;;;3.17;1.48;;;18.60;89.30;;;;;;4130909;28;20387;-53
2023/07/21 06:35:33;;;;;;;6.05;2.30;;;18.70;89.60;;;;;;4131139;28;20046;-53
2023/07/21 06:37:40;;;;;;;7.43;2.13;;;18.70;89.30;;;;;;4131353;28;20132;-53
2023/07/21 06:39:42;;;;;;;6.20;2.40;;;18.80;89.30;;;;;;4131220;28;20046;-53
2023/07/21 06:41:44;;;;;;;5.97;2.47;;;18.70;89.50;;;;;;4120499;28;20042;-55
2023/07/21 06:43:46;;;;;;;3.22;1.90;;;18.70;90.00;;;;;;4146546;28;20045;-52
2023/07/21 06:45:49;;;;;;;8.02;2.42;;;18.80;90.10;;;;;;4147270;28;20049;-52
2023/07/21 06:47:51;;;;;;;4.22;2.35;;;18.70;90.40;;;;;;4147650;28;20056;-52
2023/07/21 06:49:53;;;;;;;7.03;2.70;;;18.70;90.30;;;;;;4147558;28;20445;-52
2023/07/21 06:51:55;;;;;;;4.72;2.47;;;18.70;90.50;;;;;;4147418;28;20050;-51
2023/07/21 06:53:58;;;;;;;4.97;2.83;;;18.70;90.80;;;;;;4146533;28;20414;-52
2023/07/21 06:56:00;;;;;;;9.35;3.28;;;18.80;90.60;;;;;;4147360;28;20553;-52
2023/07/21 06:58:02;;;;;;;14.80;2.88;;;18.90;90.70;;;;;;4147235;28;20056;-51
2023/07/21 07:00:08;;;;;;;7.30;2.60;;;18.90;90.70;;;;;;4147198;28;20096;-49
2023/07/21 07:02:10;;;;;;;4.60;2.83;;;18.90;90.90;;;;;;4142727;28;20049;-52
2023/07/21 07:04:13;;;;;;;7.28;3.17;;;18.90;91.00;;;;;;4130413;28;20073;-52
2023/07/21 07:06:15;;;;;;;5.68;2.83;;;18.90;90.90;;;;;;4130820;28;20054;-49
2023/07/21 07:08:17;;;;;;;5.53;2.80;;;18.90;90.90;;;;;;4130809;28;20049;-49
2023/07/21 07:10:20;;;;;;;6.18;2.88;;;19.00;90.80;;;;;;4131143;28;20082;-50
2023/07/21 07:12:23;;;;;;;8.32;2.78;;;19.10;90.90;;;;;;4130654;28;20069;-49
2023/07/21 07:14:25;;;;;;;9.80;3.28;;;19.10;90.80;;;;;;4129979;28;20047;-49
2023/07/21 07:16:27;;;;;;;5.55;3.00;;;19.20;90.80;;;;;;4134264;28;20085;-48
2023/07/21 07:18:29;;;;;;;4.68;3.00;;;19.20;90.70;;;;;;4116923;28;20061;-50
2023/07/21 07:20:31;;;;;;;7.50;3.20;;;19.20;90.80;;;;;;4134126;28;20042;-50
2023/07/21 07:22:33;;;;;;;8.45;3.20;;;19.20;90.80;;;;;;4134357;28;20137;-51
2023/07/21 07:24:35;;;;;;;5.88;2.90;;;19.30;90.90;;;;;;4133121;28;20074;-51
2023/07/21 07:26:39;;;;;;;5.50;2.67;;;19.40;90.60;;;;;;4133919;28;20469;-50
2023/07/21 07:28:41;;;;;;;6.85;4.07;;;19.50;90.90;;;;;;4133786;28;20118;-49
2023/07/21 07:30:44;;;;;;;7.57;3.65;;;19.50;90.80;;;;;;4134268;28;20136;-50
2023/07/21 07:32:46;;;;;;;5.05;3.50;;;19.40;90.80;;;;;;4134090;28;20068;-50
2023/07/21 07:34:48;;;;;;;5.70;3.25;;;19.50;91.00;;;;;;4133049;28;20042;-49
2023/07/21 07:36:51;;;;;;;7.90;3.35;;;19.60;91.00;;;;;;4134341;28;20058;-49
2023/07/21 07:38:53;;;;;;;6.45;3.83;;;20.00;90.60;;;;;;4134265;28;20046;-50
2023/07/21 07:41:00;;;;;;;7.75;3.80;;;20.20;90.40;;;;;;4133986;28;20042;-51
2023/07/21 07:43:04;;;;;;;7.82;4.00;;;20.40;90.20;;;;;;4150043;28;20442;-52
2023/07/21 07:45:07;;;;;;;9.60;3.60;;;20.40;90.00;;;;;;4149186;28;20080;-52
2023/07/21 07:47:09;;;;;;;9.85;4.68;;;20.60;89.80;;;;;;4150026;28;20057;-52
2023/07/21 07:49:11;;;;;;;8.15;4.30;;;20.70;89.30;;;;;;4150181;28;20054;-52
2023/07/21 07:51:13;;;;;;;6.68;4.45;;;20.70;89.50;;;;;;4150269;28;20074;-52
2023/07/21 07:53:16;;;;;;;9.95;4.70;;;20.70;89.70;;;;;;4150183;28;20042;-52
2023/07/21 07:55:19;;;;;;;6.93;3.90;;;20.60;89.60;;;;;;4149166;28;20046;-51
2023/07/21 07:57:24;;;;;;;7.20;4.32;;;20.50;90.20;;;;;;4149027;28;20050;-52
2023/07/21 07:59:28;;;;;;;8.10;5.20;;;20.60;90.10;;;;;;4149628;28;20057;-52
2023/07/21 08:01:30;;;;;;;11.75;6.50;;;20.30;90.20;;;;;;4150107;28;20107;-52
2023/07/21 08:03:32;;;;;;;10.00;6.55;;;20.20;90.50;;;;;;4134005;28;20042;-51
2023/07/21 08:05:35;;;;;;;9.35;5.75;;;20.10;90.60;;;;;;4132731;28;20462;-51
2023/07/21 08:07:37;;;;;;;12.40;6.53;;;20.20;90.90;;;;;;4133714;28;20129;-51
2023/07/21 08:09:40;;;;;;;7.95;5.47;;;20.30;90.70;;;;;;4133430;28;20116;-51
2023/07/21 08:11:42;;;;;;;11.07;6.07;;;20.40;90.50;;;;;;4133249;28;20054;-51
2023/07/21 08:13:44;;;;;;;8.48;6.13;;;20.50;90.50;;;;;;4133461;28;20127;-52
2023/07/21 08:15:48;;;;;;;9.25;6.80;;;20.60;90.30;;;;;;4132871;28;20070;-51
2023/07/21 08:17:50;;;;;;;14.25;7.93;;;20.60;90.40;;;;;;4133556;28;20133;-51
2023/07/21 08:19:52;;;;;;;13.55;7.25;;;20.70;90.30;;;;;;4133524;28;20046;-51
2023/07/21 08:21:54;;;;;;;12.18;5.47;;;20.90;90.20;;;;;;4133541;28;20072;-52
2023/07/21 08:23:56;;;;;;;8.63;6.75;;;20.90;90.00;;;;;;4115343;28;20051;-51
2023/07/21 08:25:58;;;;;;;13.27;7.68;;;21.00;90.10;;;;;;4115309;28;20067;-51
2023/07/21 08:28:03;;;;;;;10.55;7.45;;;20.70;89.80;;;;;;4133104;28;20146;-51
2023/07/21 08:30:08;;;;;;;12.82;8.38;;;20.80;90.30;;;;;;4133278;28;20042;-51
2023/07/21 08:32:11;;;;;;;10.32;6.30;;;20.90;90.10;;;;;;4133277;28;20548;-51
2023/07/21 08:34:13;;;;;;;12.65;7.13;;;21.00;90.00;;;;;;4132441;28;20050;-51
2023/07/21 08:36:16;;;;;;;15.65;8.00;;;21.00;90.00;;;;;;4132991;28;20149;-50
2023/07/21 08:38:18;;;;;;;10.82;6.20;;;21.10;89.90;;;;;;4133236;28;20466;-50
2023/07/21 08:40:22;;;;;;;8.25;6.15;;;21.10;89.50;;;;;;4115520;28;20086;-50
2023/07/21 08:42:25;;;;;;;13.35;6.32;;;21.10;89.60;;;;;;4145002;28;20126;-50
2023/07/21 08:44:29;;;;;;;12.43;6.68;;;21.20;88.90;;;;;;4148476;28;20056;-50
2023/07/21 08:46:31;;;;;;;7.80;5.70;;;21.30;88.90;;;;;;4148236;28;20104;-51
2023/07/21 08:48:35;;;;;;;8.52;5.28;;;21.30;88.70;;;;;;4149641;28;20042;-51
2023/07/21 08:50:40;;;;;;;7.82;5.40;;;21.50;88.20;;;;;;4149739;28;20045;-51
2023/07/21 08:52:42;;;;;;;7.75;5.03;;;21.30;87.90;;;;;;4149502;28;20046;-52
2023/07/21 08:54:44;;;;;;;10.52;5.80;;;21.30;88.30;;;;;;4148189;28;20045;-51
2023/07/21 08:56:46;;;;;;;7.90;5.20;;;21.30;87.90;;;;;;4149198;28;20050;-51
2023/07/21 08:58:48;;;;;;;9.30;4.88;;;21.50;87.50;;;;;;4149005;28;20069;-52
2023/07/21 09:00:54;;;;;;;4.70;3.85;;;21.50;87.30;;;;;;4149378;28;20056;-52
2023/07/21 09:02:59;;;;;;;10.23;4.30;;;21.70;87.30;;;;;;4138049;28;20358;-50
2023/07/21 09:05:04;;;;;;;9.25;4.20;;;21.80;86.40;;;;;;4131780;28;20054;-50
2023/07/21 09:07:11;;;;;;;6.47;4.65;;;21.90;85.50;;;;;;4132931;28;20419;-50
2023/07/21 09:09:17;;;;;;;7.83;4.57;;;22.10;85.50;;;;;;4132751;28;20419;-52
2023/07/21 09:11:19;;;;;;;11.77;5.30;;;22.10;85.60;;;;;;4132780;28;20445;-52
2023/07/21 09:13:21;;;;;;;6.70;4.43;;;22.10;85.90;;;;;;4132531;28;20046;-51
2023/07/21 09:15:23;;;;;;;13.32;4.47;;;22.10;85.40;;;;;;4114277;28;20047;-50
2023/07/21 09:17:25;;;;;;;9.20;4.97;;;22.10;85.50;;;;;;4132814;28;20046;-50
2023/07/21 09:19:27;;;;;;;8.68;4.55;;;22.10;84.10;;;;;;4132642;28;20042;-50
2023/07/21 09:21:31;;;;;;;5.53;4.63;;;22.10;83.50;;;;;;4132741;28;20046;-50
2023/07/21 09:23:33;;;;;;;6.35;4.43;;;22.00;83.70;;;;;;4132061;28;20046;-49
2023/07/21 09:25:35;;;;;;;8.88;4.18;;;22.10;83.80;;;;;;4131317;28;20070;-49
2023/07/21 09:27:39;;;;;;;4.88;3.63;;;22.20;83.30;;;;;;4132302;28;20046;-49
2023/07/21 09:29:42;;;;;;;6.93;3.85;;;22.10;82.50;;;;;;4132487;28;20065;-50
2023/07/21 09:31:47;;;;;;;5.47;3.65;;;22.20;82.90;;;;;;4115173;28;20422;-51
2023/07/21 09:33:54;;;;;;;6.32;3.33;;;22.30;82.30;;;;;;4132309;28;20553;-50
2023/07/21 09:36:06;;;;;;;5.88;2.97;;;22.40;79.50;;;;;;4131385;28;20097;-49
2023/07/21 09:38:12;;;;;;;6.85;3.63;;;22.60;79.70;;;;;;4131620;28;20046;-50
2023/07/21 09:40:14;;;;;;;8.10;3.08;;;22.60;79.50;;;;;;4132243;28;20046;-50
2023/07/21 09:42:19;;;;;;;6.05;3.47;;;22.70;79.90;;;;;;4125418;28;20476;-51
2023/07/21 09:44:21;;;;;;;23.75;3.92;;;22.80;80.50;;;;;;4147731;28;20049;-50
2023/07/21 09:46:23;;;;;;;4.10;3.25;;;22.70;80.70;;;;;;4148335;28;20144;-51
2023/07/21 09:48:26;;;;;;;5.80;3.30;;;22.80;81.60;;;;;;4147032;28;20100;-52
2023/07/21 09:50:29;;;;;;;4.75;3.45;;;22.90;80.80;;;;;;4148378;28;20046;-52
2023/07/21 09:52:37;;;;;;;4.70;3.40;;;22.70;79.90;;;;;;4148159;28;20046;-52
2023/07/21 09:54:47;;;;;;;5.30;2.95;;;22.80;79.70;;;;;;4147264;28;20049;-52
2023/07/21 09:56:50;;;;;;;3.97;2.78;;;23.00;79.20;;;;;;4146864;28;20050;-51
2023/07/21 09:58:57;;;;;;;5.97;3.05;;;23.00;78.80;;;;;;4148011;28;20416;-52
2023/07/21 10:01:02;;;;;;;6.32;2.80;;;23.20;79.70;;;;;;4148635;28;20129;-51
2023/07/21 10:03:04;;;;;;;10.82;3.92;;;23.40;78.20;;;;;;4137214;28;20042;-50
2023/07/21 10:05:09;;;;;;;5.88;2.53;;;23.50;77.90;;;;;;4131472;28;20043;-52
2023/07/21 10:07:13;;;;;;;4.30;2.58;;;23.70;77.60;;;;;;4107114;28;20145;-50
2023/07/21 10:09:16;;;;;;;4.88;2.42;;;23.90;76.90;;;;;;4148160;28;20110;-52
2023/07/21 10:11:20;;;;;;;3.75;2.10;;;23.90;75.30;;;;;;4148049;28;20046;-51
2023/07/21 10:13:24;;;;;;;7.13;2.60;;;23.60;74.30;;;;;;4148335;28;20065;-50
2023/07/21 10:15:29;;;;;;;2.88;2.15;;;23.50;75.10;;;;;;4147099;28;20073;-49
2023/07/21 10:17:53;;;;;;;3.40;2.78;;;23.30;75.10;;;;;;4146952;28;20137;-52
2023/07/21 10:20:07;;;;;;;4.40;2.90;;;23.30;76.10;;;;;;4148054;28;20429;-52
2023/07/21 10:22:11;;;;;;;4.18;2.63;;;23.50;75.40;;;;;;4147644;28;20050;-52
2023/07/21 10:24:22;;;;;;;6.10;2.28;;;23.70;75.30;;;;;;4147675;28;20133;-53
2023/07/21 10:26:25;;;;;;;3.63;1.98;;;23.70;74.70;;;;;;4147627;28;20076;-51
2023/07/21 10:28:35;;;;;;;7.28;2.20;;;23.80;75.30;;;;;;4148030;28;20070;-49
2023/07/21 10:30:38;;;;;;;5.65;2.15;;;24.00;75.10;;;;;;4147749;28;20092;-51
2023/07/21 10:32:44;;;;;;;3.72;1.90;;;24.20;75.40;;;;;;4147955;28;20052;-50
2023/07/21 10:34:46;;;;;;;4.80;2.15;;;24.10;73.60;;;;;;4147143;28;20050;-50
2023/07/21 10:36:57;;;;;;;5.45;2.03;;;24.00;73.10;;;;;;4147798;28;20464;-51
2023/07/21 10:39:00;;;;;;;2.50;2.05;;;23.90;71.80;;;;;;4149834;28;20560;-52
2023/07/21 10:41:02;;;;;;;5.38;2.05;;;24.00;72.70;;;;;;4149335;28;20068;-52